Alpine, Oregon
Current Conditions -  °F | °C
As of 4:15 PM on Wednesday 22 Oct 2014 (Local Time) from KCVO Reporting Station
Overcast Overcast  
Wind Chill: 61°   Ceiling: 8000
Heat Index: 61°   Visibility: 10mi
Dew Point: 57°   Wind: 9mph
Humidity: 88%   Direction: 210°SSW
Pressure: 29.76"   Gusts: NA
Location:  44.3398°N, 123.353°W
Report Text: KCVO 222315Z AUTO 21008KT 10SM FEW031 SCT070 OVC080 16/14 A2976 RMK AO1 P0005
Loading
Personal Weather Stations






























Interactive Weather Map
Tropical Storm Tracking
New forecast layout! Learn more

10-Day Weather Forecast

Advertisements
Track Severe Weather on mobile